createdAt,value
2018-06-27T00:00:30.767Z,14.66
2018-06-27T00:01:32.149Z,14.66
2018-06-27T00:02:33.538Z,14.64
2018-06-27T00:03:34.920Z,14.63
2018-06-27T00:04:36.311Z,14.64
2018-06-27T00:05:37.695Z,14.61
2018-06-27T00:06:39.078Z,14.49
2018-06-27T00:07:40.466Z,14.48
2018-06-27T00:08:41.853Z,14.52
2018-06-27T00:09:43.251Z,14.49
2018-06-27T00:10:44.632Z,14.56
2018-06-27T00:11:46.022Z,14.56
2018-06-27T00:12:47.413Z,14.54
2018-06-27T00:13:48.792Z,14.54
2018-06-27T00:14:50.168Z,14.57
2018-06-27T00:15:51.554Z,14.44
2018-06-27T00:16:52.933Z,14.42
2018-06-27T00:17:54.326Z,14.57
2018-06-27T00:18:55.708Z,14.53
2018-06-27T00:19:57.087Z,14.46
2018-06-27T00:20:58.467Z,14.46
2018-06-27T00:21:59.858Z,14.41
2018-06-27T00:23:01.249Z,14.48
2018-06-27T00:24:02.637Z,14.52
2018-06-27T00:25:04.031Z,14.42
2018-06-27T00:26:05.407Z,14.41
2018-06-27T00:27:06.800Z,14.49
2018-06-27T00:28:08.740Z,14.45
2018-06-27T00:29:10.129Z,14.46
2018-06-27T00:30:11.510Z,14.44
2018-06-27T00:31:12.892Z,14.45
2018-06-27T00:32:14.273Z,14.42
2018-06-27T00:33:15.652Z,14.39
2018-06-27T00:34:17.039Z,14.53
2018-06-27T00:35:18.428Z,14.44
2018-06-27T00:36:19.820Z,14.38
2018-06-27T00:37:21.197Z,14.49
2018-06-27T00:38:22.582Z,14.44
2018-06-27T00:39:23.963Z,14.39
2018-06-27T00:40:25.347Z,14.39
2018-06-27T00:41:26.742Z,14.34
2018-06-27T00:42:28.118Z,14.31
2018-06-27T00:43:29.498Z,14.29
2018-06-27T00:44:30.883Z,14.30
2018-06-27T00:45:32.266Z,14.31
2018-06-27T00:46:33.656Z,14.30
2018-06-27T00:47:35.047Z,14.30
2018-06-27T00:48:36.426Z,14.35
2018-06-27T00:49:37.810Z,14.27
2018-06-27T00:50:39.196Z,14.26
2018-06-27T00:51:40.588Z,14.26
2018-06-27T00:52:41.991Z,14.24
2018-06-27T00:53:43.367Z,14.24
2018-06-27T00:54:44.753Z,14.19
2018-06-27T00:55:46.632Z,14.20
2018-06-27T00:56:48.015Z,14.24
2018-06-27T00:57:49.409Z,14.30
2018-06-27T00:58:50.782Z,14.24
2018-06-27T00:59:52.166Z,14.23
2018-06-27T01:00:53.555Z,14.19
2018-06-27T01:01:54.935Z,14.24
2018-06-27T01:02:56.322Z,14.19
2018-06-27T01:03:57.699Z,14.11
2018-06-27T01:04:59.092Z,14.09
2018-06-27T01:06:00.467Z,14.09
2018-06-27T01:07:01.859Z,14.04
2018-06-27T01:08:03.237Z,14.06
2018-06-27T01:09:04.638Z,14.12
2018-06-27T01:10:06.021Z,14.08
2018-06-27T01:11:07.410Z,14.11
2018-06-27T01:12:08.798Z,14.05
2018-06-27T01:13:10.175Z,14.11
2018-06-27T01:14:11.571Z,14.05
2018-06-27T01:15:12.955Z,14.11
2018-06-27T01:16:14.336Z,14.04
2018-06-27T01:17:15.718Z,14.06
2018-06-27T01:18:17.108Z,14.05
2018-06-27T01:19:18.498Z,13.99
2018-06-27T01:20:19.881Z,13.91
2018-06-27T01:21:21.257Z,14.02
2018-06-27T01:22:22.643Z,13.98
2018-06-27T01:23:24.024Z,13.96
2018-06-27T01:24:25.408Z,13.98
2018-06-27T01:25:26.795Z,13.98
2018-06-27T01:26:28.190Z,13.96
2018-06-27T01:27:29.572Z,14.01
2018-06-27T01:28:30.950Z,13.94
2018-06-27T01:29:32.332Z,13.96
2018-06-27T01:30:33.706Z,13.98
2018-06-27T01:31:35.100Z,13.98
2018-06-27T01:32:36.479Z,13.96
2018-06-27T01:33:37.857Z,13.98
2018-06-27T01:34:39.238Z,13.96
2018-06-27T01:35:40.631Z,13.91
2018-06-27T01:36:42.039Z,13.94
2018-06-27T01:37:43.431Z,13.81
2018-06-27T01:38:44.817Z,13.76
2018-06-27T01:39:46.189Z,13.86
2018-06-27T01:40:47.584Z,13.86
2018-06-27T01:41:48.971Z,13.86
2018-06-27T01:42:50.361Z,13.76
2018-06-27T01:43:51.737Z,13.81
2018-06-27T01:44:53.122Z,13.81
2018-06-27T01:45:54.512Z,13.73
2018-06-27T01:46:55.898Z,13.81
2018-06-27T01:47:57.279Z,13.81
2018-06-27T01:48:58.670Z,13.84
2018-06-27T01:50:00.059Z,13.81
2018-06-27T01:51:01.446Z,13.83
2018-06-27T01:52:02.828Z,13.81
2018-06-27T01:53:04.212Z,13.80
2018-06-27T01:54:05.594Z,13.80
2018-06-27T01:55:06.970Z,13.81
2018-06-27T01:56:08.360Z,13.79
2018-06-27T01:57:09.745Z,13.75
2018-06-27T01:58:11.127Z,13.75
2018-06-27T01:59:12.505Z,13.72
2018-06-27T02:00:13.893Z,13.73
2018-06-27T02:01:15.277Z,13.80
2018-06-27T02:02:17.381Z,13.76
2018-06-27T02:03:18.775Z,13.79
2018-06-27T02:04:20.155Z,13.79
2018-06-27T02:05:21.531Z,13.69
2018-06-27T02:06:22.925Z,13.76
2018-06-27T02:07:24.311Z,13.73
2018-06-27T02:08:25.704Z,13.75
2018-06-27T02:09:27.078Z,13.76
2018-06-27T02:10:28.469Z,13.72
2018-06-27T02:11:29.847Z,13.81
2018-06-27T02:12:31.231Z,13.79
2018-06-27T02:13:32.612Z,13.72
2018-06-27T02:14:34.504Z,13.73
2018-06-27T02:15:35.892Z,13.71
2018-06-27T02:16:37.309Z,13.66
2018-06-27T02:17:38.644Z,13.71
2018-06-27T02:18:40.029Z,13.62
2018-06-27T02:19:41.416Z,13.63
2018-06-27T02:20:42.802Z,13.71
2018-06-27T02:21:44.180Z,13.73
2018-06-27T02:22:45.574Z,13.75
2018-06-27T02:23:46.954Z,13.72
2018-06-27T02:24:48.330Z,13.72
2018-06-27T02:25:49.715Z,13.72
2018-06-27T02:26:51.107Z,13.79
2018-06-27T02:27:52.490Z,13.71
2018-06-27T02:28:53.871Z,13.75
2018-06-27T02:29:55.263Z,13.65
2018-06-27T02:30:56.651Z,13.69
2018-06-27T02:31:58.031Z,13.71
2018-06-27T02:32:59.419Z,13.69
2018-06-27T02:34:00.809Z,13.72
2018-06-27T02:35:02.197Z,13.73
2018-06-27T02:36:03.577Z,13.81
2018-06-27T02:37:04.967Z,13.71
2018-06-27T02:38:06.349Z,13.73
2018-06-27T02:39:07.737Z,13.72
2018-06-27T02:40:09.119Z,13.73
2018-06-27T02:41:10.509Z,13.80
2018-06-27T02:42:11.906Z,13.66
2018-06-27T02:43:13.271Z,13.63
2018-06-27T02:44:14.652Z,13.68
2018-06-27T02:45:16.048Z,13.73
2018-06-27T02:46:17.425Z,13.63
2018-06-27T02:47:18.814Z,13.65
2018-06-27T02:48:20.188Z,13.65
2018-06-27T02:49:21.584Z,13.68
2018-06-27T02:50:22.965Z,13.69
2018-06-27T02:51:24.360Z,13.66
2018-06-27T02:52:25.751Z,13.68
2018-06-27T02:53:27.126Z,13.65
2018-06-27T02:54:28.502Z,13.68
2018-06-27T02:55:29.893Z,13.59
2018-06-27T02:56:31.278Z,13.57
2018-06-27T02:57:32.655Z,13.57
2018-06-27T02:58:34.055Z,13.62
2018-06-27T02:59:35.433Z,13.62
2018-06-27T03:00:36.822Z,13.63
2018-06-27T03:01:38.213Z,13.61
2018-06-27T03:02:39.605Z,13.62
2018-06-27T03:03:40.985Z,13.63
2018-06-27T03:04:42.380Z,13.63
2018-06-27T03:05:43.771Z,13.65
2018-06-27T03:06:45.164Z,13.59
2018-06-27T03:07:46.563Z,13.51
2018-06-27T03:08:47.957Z,13.61
2018-06-27T03:09:49.333Z,13.62
2018-06-27T03:10:50.714Z,13.51
2018-06-27T03:11:52.094Z,13.51
2018-06-27T03:12:53.491Z,13.53
2018-06-27T03:13:54.836Z,13.55
2018-06-27T03:14:56.224Z,13.51
2018-06-27T03:15:57.621Z,13.59
2018-06-27T03:16:59.001Z,13.48
2018-06-27T03:18:00.392Z,13.59
2018-06-27T03:19:01.782Z,13.51
2018-06-27T03:20:03.164Z,13.53
2018-06-27T03:21:04.551Z,13.50
2018-06-27T03:22:05.942Z,13.51
2018-06-27T03:23:08.199Z,13.54
2018-06-27T03:24:09.588Z,13.50
2018-06-27T03:25:10.986Z,13.54
2018-06-27T03:26:12.373Z,13.51
2018-06-27T03:27:13.751Z,13.54
2018-06-27T03:28:15.141Z,13.51
2018-06-27T03:29:17.308Z,13.54
2018-06-27T03:30:17.888Z,13.62
2018-06-27T03:31:19.264Z,13.57
2018-06-27T03:32:20.654Z,13.55
2018-06-27T03:33:22.039Z,13.50
2018-06-27T03:34:23.431Z,13.54
2018-06-27T03:35:24.819Z,13.51
2018-06-27T03:36:26.208Z,13.50
2018-06-27T03:37:27.594Z,13.53
2018-06-27T03:38:28.984Z,13.51
2018-06-27T03:39:30.368Z,13.57
2018-06-27T03:40:31.754Z,13.47
2018-06-27T03:41:33.138Z,13.53
2018-06-27T03:42:34.538Z,13.53
2018-06-27T03:43:36.536Z,13.54
2018-06-27T03:44:37.932Z,13.51
2018-06-27T03:45:39.323Z,13.46
2018-06-27T03:46:40.719Z,13.48
2018-06-27T03:47:42.103Z,13.46
2018-06-27T03:48:43.499Z,13.35
2018-06-27T03:49:44.891Z,13.39
2018-06-27T03:50:46.277Z,13.39
2018-06-27T03:51:47.665Z,13.38
2018-06-27T03:52:49.050Z,13.41
2018-06-27T03:53:50.438Z,13.44
2018-06-27T03:54:51.827Z,13.31
2018-06-27T03:55:53.215Z,13.38
2018-06-27T03:56:54.603Z,13.43
2018-06-27T03:57:55.993Z,13.41
2018-06-27T03:58:57.393Z,13.35
2018-06-27T03:59:58.762Z,13.38
2018-06-27T04:01:00.154Z,13.28
2018-06-27T04:02:01.539Z,13.35
2018-06-27T04:03:02.922Z,13.36
2018-06-27T04:04:04.312Z,13.31
2018-06-27T04:05:05.686Z,13.39
2018-06-27T04:06:07.082Z,13.39
2018-06-27T04:07:08.460Z,13.36
2018-06-27T04:08:09.856Z,13.36
2018-06-27T04:09:11.238Z,13.35
2018-06-27T04:10:12.622Z,13.46
2018-06-27T04:11:14.007Z,13.50
2018-06-27T04:12:15.397Z,13.50
2018-06-27T04:13:16.854Z,13.59
2018-06-27T04:14:18.126Z,13.59
2018-06-27T04:15:19.527Z,13.71
2018-06-27T04:16:20.905Z,13.63
2018-06-27T04:17:22.301Z,13.71
2018-06-27T04:18:23.693Z,13.75
2018-06-27T04:19:25.079Z,13.79
2018-06-27T04:20:26.456Z,13.75
2018-06-27T04:21:27.847Z,13.86
2018-06-27T04:22:29.235Z,13.98
2018-06-27T04:23:30.624Z,13.99
2018-06-27T04:24:32.013Z,13.96
2018-06-27T04:25:33.394Z,14.06
2018-06-27T04:26:34.784Z,14.08
2018-06-27T04:27:36.164Z,14.17
2018-06-27T04:28:37.564Z,14.21
2018-06-27T04:29:38.946Z,14.24
2018-06-27T04:30:40.340Z,14.27
2018-06-27T04:31:41.726Z,14.39
2018-06-27T04:32:43.114Z,14.52
2018-06-27T04:33:44.502Z,14.49
2018-06-27T04:34:45.881Z,14.63
2018-06-27T04:35:47.329Z,14.61
2018-06-27T04:36:48.672Z,14.69
2018-06-27T04:37:50.061Z,14.75
2018-06-27T04:38:51.458Z,14.86
2018-06-27T04:39:52.844Z,14.90
2018-06-27T04:40:55.015Z,15.07
2018-06-27T04:41:56.402Z,15.01
2018-06-27T04:42:57.793Z,15.22
2018-06-27T04:43:59.185Z,15.33
2018-06-27T04:45:00.580Z,15.60
2018-06-27T04:46:01.965Z,15.81
2018-06-27T04:47:03.361Z,16.03
2018-06-27T04:48:04.775Z,16.10
2018-06-27T04:49:06.167Z,16.11
2018-06-27T04:50:07.556Z,16.17
2018-06-27T04:51:08.955Z,16.17
2018-06-27T04:52:10.341Z,16.27
2018-06-27T04:53:11.785Z,16.30
2018-06-27T04:54:13.119Z,16.40
2018-06-27T04:55:14.511Z,16.55
2018-06-27T04:56:15.908Z,16.60
2018-06-27T04:57:17.298Z,16.57
2018-06-27T04:58:18.687Z,16.60
2018-06-27T04:59:20.074Z,16.69
2018-06-27T05:00:21.471Z,16.52
2018-06-27T05:01:22.853Z,16.57
2018-06-27T05:02:24.248Z,16.67
2018-06-27T05:03:25.631Z,16.72
2018-06-27T05:04:27.040Z,16.75
2018-06-27T05:05:28.426Z,16.73
2018-06-27T05:06:29.829Z,16.85
2018-06-27T05:07:31.229Z,16.80
2018-06-27T05:08:33.459Z,16.84
2018-06-27T05:09:34.848Z,16.85
2018-06-27T05:10:36.240Z,16.88
2018-06-27T05:11:37.670Z,16.88
2018-06-27T05:12:39.029Z,16.90
2018-06-27T05:13:40.423Z,16.91
2018-06-27T05:14:41.813Z,16.99
2018-06-27T05:15:43.203Z,16.95
2018-06-27T05:16:44.599Z,16.96
2018-06-27T05:17:45.989Z,17.09
2018-06-27T05:18:47.392Z,17.30
2018-06-27T05:19:48.781Z,17.39
2018-06-27T05:20:50.949Z,17.57
2018-06-27T05:21:52.368Z,17.65
2018-06-27T05:22:53.742Z,17.71
2018-06-27T05:23:55.134Z,17.79
2018-06-27T05:24:56.529Z,17.77
2018-06-27T05:25:57.917Z,17.83
2018-06-27T05:26:59.312Z,17.92
2018-06-27T05:28:00.700Z,17.99
2018-06-27T05:29:02.102Z,17.99
2018-06-27T05:30:03.489Z,18.04
2018-06-27T05:31:04.882Z,17.99
2018-06-27T05:32:06.284Z,18.17
2018-06-27T05:33:07.683Z,18.21
2018-06-27T05:34:09.080Z,18.11
2018-06-27T05:35:10.464Z,18.23
2018-06-27T05:36:11.861Z,18.47
2018-06-27T05:37:13.265Z,18.60
2018-06-27T05:38:14.656Z,18.75
2018-06-27T05:39:16.045Z,18.91
2018-06-27T05:40:17.435Z,19.13
2018-06-27T05:41:18.836Z,19.50
2018-06-27T05:42:20.245Z,20.13
2018-06-27T05:43:21.631Z,21.00
2018-06-27T05:44:23.101Z,21.63
2018-06-27T05:45:24.417Z,21.99
2018-06-27T05:46:25.817Z,22.84
2018-06-27T05:47:27.215Z,23.45
2018-06-27T05:48:28.611Z,24.26
2018-06-27T05:49:30.001Z,24.87
2018-06-27T05:50:31.407Z,25.63
2018-06-27T05:51:32.833Z,25.97
2018-06-27T05:52:34.847Z,26.21
2018-06-27T05:53:36.246Z,26.49
2018-06-27T05:54:37.656Z,26.97
2018-06-27T05:55:39.040Z,27.28
2018-06-27T05:56:40.460Z,27.65
2018-06-27T05:57:41.845Z,27.65
2018-06-27T05:58:43.252Z,28.20
2018-06-27T05:59:44.648Z,28.40
2018-06-27T06:00:46.057Z,28.45
2018-06-27T06:01:48.402Z,28.80
2018-06-27T06:02:49.796Z,28.85
2018-06-27T06:03:51.205Z,28.79
2018-06-27T06:04:52.601Z,28.91
2018-06-27T06:05:54.008Z,29.12
2018-06-27T06:06:55.403Z,28.95
2018-06-27T06:07:56.812Z,29.02
2018-06-27T06:08:58.219Z,29.49
2018-06-27T06:09:59.673Z,29.10
2018-06-27T06:11:01.013Z,29.55
2018-06-27T06:12:02.941Z,29.70
2018-06-27T06:13:04.348Z,30.11
2018-06-27T06:14:05.750Z,30.28
2018-06-27T06:15:07.162Z,30.57
2018-06-27T06:16:08.568Z,30.54
2018-06-27T06:17:09.986Z,30.86
2018-06-27T06:18:11.391Z,30.53
2018-06-27T06:19:12.791Z,30.61
2018-06-27T06:20:14.200Z,30.85
2018-06-27T06:21:15.613Z,30.10
2018-06-27T06:22:17.032Z,30.66
2018-06-27T06:23:18.445Z,30.48
2018-06-27T06:24:19.859Z,30.45
2018-06-27T06:25:21.274Z,30.57
2018-06-27T06:26:22.675Z,30.68
2018-06-27T06:27:24.089Z,30.66
2018-06-27T06:28:26.277Z,30.54
2018-06-27T06:29:27.697Z,30.19
2018-06-27T06:30:29.125Z,30.08
2018-06-27T06:31:30.529Z,29.69
2018-06-27T06:32:31.970Z,29.81
2018-06-27T06:33:33.347Z,29.69
2018-06-27T06:34:34.761Z,29.33
2018-06-27T06:35:36.181Z,29.32
2018-06-27T06:36:37.645Z,29.02
2018-06-27T06:37:39.057Z,28.87
2018-06-27T06:38:40.481Z,28.92
2018-06-27T06:39:41.884Z,28.88
2018-06-27T06:40:43.299Z,28.43
2018-06-27T06:41:44.719Z,28.25
2018-06-27T06:42:46.160Z,28.14
2018-06-27T06:43:48.455Z,28.20
2018-06-27T06:44:49.881Z,28.05
2018-06-27T06:45:51.309Z,27.80
2018-06-27T06:46:52.732Z,27.49
2018-06-27T06:47:54.191Z,27.48
2018-06-27T06:48:55.609Z,27.45
2018-06-27T06:49:57.025Z,27.38
2018-06-27T06:50:58.474Z,27.61
2018-06-27T06:51:59.888Z,27.80
2018-06-27T06:53:02.100Z,27.93
2018-06-27T06:54:03.507Z,28.11
2018-06-27T06:55:04.922Z,28.08
2018-06-27T06:56:06.335Z,28.08
2018-06-27T06:57:07.758Z,27.77
2018-06-27T06:58:09.155Z,28.03
2018-06-27T06:59:10.579Z,27.96
2018-06-27T07:00:12.013Z,27.98
2018-06-27T07:01:13.422Z,27.99
2018-06-27T07:02:14.821Z,27.93
2018-06-27T07:03:16.239Z,27.88
2018-06-27T07:04:17.672Z,27.96
2018-06-27T07:05:19.051Z,28.08
2018-06-27T07:06:20.459Z,28.17
2018-06-27T07:07:21.868Z,27.96
2018-06-27T07:08:23.279Z,27.90
2018-06-27T07:09:24.692Z,27.69
2018-06-27T07:10:26.093Z,27.55
2018-06-27T07:11:27.510Z,27.59
2018-06-27T07:12:28.916Z,27.34
2018-06-27T07:13:30.325Z,27.40
2018-06-27T07:14:31.722Z,27.38
2018-06-27T07:15:33.135Z,27.23
2018-06-27T07:16:34.600Z,27.28
2018-06-27T07:17:36.015Z,27.61
2018-06-27T07:18:37.430Z,27.77
2018-06-27T07:19:38.830Z,27.59
2018-06-27T07:20:40.240Z,27.76
2018-06-27T07:21:41.651Z,28.02
2018-06-27T07:22:43.059Z,28.13
2018-06-27T07:23:44.456Z,28.24
2018-06-27T07:24:45.865Z,28.30
2018-06-27T07:25:47.263Z,28.23
2018-06-27T07:26:48.677Z,28.42
2018-06-27T07:27:50.086Z,28.36
2018-06-27T07:28:51.562Z,28.28
2018-06-27T07:29:52.870Z,28.17
2018-06-27T07:30:54.271Z,28.35
2018-06-27T07:31:55.671Z,27.99
2018-06-27T07:32:57.079Z,27.88
2018-06-27T07:33:58.487Z,28.06
2018-06-27T07:34:59.889Z,28.17
2018-06-27T07:36:01.405Z,28.27
2018-06-27T07:37:02.663Z,28.33
2018-06-27T07:38:04.083Z,28.50
2018-06-27T07:39:05.490Z,28.61
2018-06-27T07:40:06.905Z,28.45
2018-06-27T07:41:08.307Z,28.36
2018-06-27T07:42:09.715Z,27.98
2018-06-27T07:43:11.136Z,27.84
2018-06-27T07:44:12.530Z,27.48
2018-06-27T07:45:13.936Z,27.24
2018-06-27T07:46:15.331Z,27.03
2018-06-27T07:47:16.734Z,26.71
2018-06-27T07:48:18.141Z,26.68
2018-06-27T07:49:19.570Z,26.31
2018-06-27T07:50:20.967Z,25.79
2018-06-27T07:51:22.364Z,25.23
2018-06-27T07:52:23.773Z,25.05
2018-06-27T07:53:25.178Z,24.83
2018-06-27T07:54:26.586Z,24.77
2018-06-27T07:55:27.997Z,24.86
2018-06-27T07:56:29.388Z,24.74
2018-06-27T07:57:30.790Z,24.75
2018-06-27T07:58:32.199Z,24.83
2018-06-27T07:59:33.603Z,24.92
2018-06-27T08:00:34.996Z,24.99
2018-06-27T08:01:36.404Z,24.97
2018-06-27T08:02:37.795Z,25.01
2018-06-27T08:03:39.196Z,25.01
2018-06-27T08:04:40.600Z,25.22
2018-06-27T08:05:42.002Z,25.05
2018-06-27T08:06:43.399Z,25.02
2018-06-27T08:07:44.797Z,25.01
2018-06-27T08:08:46.208Z,24.61
2018-06-27T08:09:47.606Z,24.64
2018-06-27T08:10:49.008Z,24.71
2018-06-27T08:11:50.452Z,24.70
2018-06-27T08:12:51.800Z,24.63
2018-06-27T08:13:53.201Z,24.29
2018-06-27T08:14:54.598Z,24.21
2018-06-27T08:15:55.999Z,24.09
2018-06-27T08:16:57.404Z,24.12
2018-06-27T08:17:58.911Z,24.06
2018-06-27T08:19:00.158Z,24.09
2018-06-27T08:20:01.559Z,24.19
2018-06-27T08:21:02.973Z,24.00
2018-06-27T08:22:04.378Z,23.74
2018-06-27T08:23:05.778Z,23.49
2018-06-27T08:24:07.169Z,23.31
2018-06-27T08:25:08.572Z,23.14
2018-06-27T08:26:09.988Z,22.97
2018-06-27T08:27:11.375Z,22.94
2018-06-27T08:28:12.774Z,23.00
2018-06-27T08:29:14.181Z,22.93
2018-06-27T08:30:15.581Z,23.01
2018-06-27T08:31:16.989Z,22.91
2018-06-27T08:32:18.378Z,22.96
2018-06-27T08:33:19.780Z,22.94
2018-06-27T08:34:21.204Z,22.82
2018-06-27T08:35:22.599Z,22.84
2018-06-27T08:36:24.001Z,22.67
2018-06-27T08:37:25.395Z,22.66
2018-06-27T08:38:26.784Z,22.66
2018-06-27T08:39:28.207Z,22.74
2018-06-27T08:40:29.624Z,22.84
2018-06-27T08:41:31.017Z,22.84
2018-06-27T08:42:32.430Z,22.96
2018-06-27T08:43:33.845Z,22.89
2018-06-27T08:44:35.222Z,22.94
2018-06-27T08:45:36.616Z,23.07
2018-06-27T08:46:38.012Z,22.88
2018-06-27T08:47:40.077Z,22.94
2018-06-27T08:48:41.472Z,23.04
2018-06-27T08:49:42.869Z,22.94
2018-06-27T08:50:44.824Z,23.06
2018-06-27T08:51:46.217Z,23.11
2018-06-27T08:52:47.613Z,23.03
2018-06-27T08:53:49.003Z,23.00
2018-06-27T08:54:50.409Z,23.14
2018-06-27T08:55:51.809Z,23.12
2018-06-27T08:56:53.824Z,23.14
2018-06-27T08:57:55.215Z,23.04
2018-06-27T08:58:56.618Z,22.94
2018-06-27T08:59:58.017Z,22.89
2018-06-27T09:00:59.457Z,22.88
2018-06-27T09:02:00.857Z,22.94
2018-06-27T09:03:02.259Z,22.97
2018-06-27T09:04:03.665Z,23.14
2018-06-27T09:05:05.068Z,23.11
2018-06-27T09:06:06.468Z,22.94
2018-06-27T09:07:07.854Z,23.04
2018-06-27T09:08:09.258Z,22.96
2018-06-27T09:09:10.664Z,22.97
2018-06-27T09:10:12.062Z,22.86
2018-06-27T09:11:13.456Z,22.93
2018-06-27T09:12:15.552Z,23.01
2018-06-27T09:13:16.965Z,22.86
2018-06-27T09:14:18.346Z,22.84
2018-06-27T09:15:19.750Z,22.96
2018-06-27T09:16:21.155Z,22.89
2018-06-27T09:17:22.585Z,23.09
2018-06-27T09:18:23.990Z,23.22
2018-06-27T09:19:25.395Z,23.15
2018-06-27T09:20:26.794Z,23.19
2018-06-27T09:21:28.201Z,23.14
2018-06-27T09:22:29.600Z,23.25
2018-06-27T09:23:32.842Z,23.32
2018-06-27T09:24:34.225Z,23.44
2018-06-27T09:25:35.621Z,23.45
2018-06-27T09:26:37.024Z,23.54
2018-06-27T09:27:38.419Z,23.60
2018-06-27T09:28:39.820Z,23.42
2018-06-27T09:29:41.226Z,23.47
2018-06-27T09:30:42.625Z,23.25
2018-06-27T09:31:44.036Z,23.12
2018-06-27T09:32:45.441Z,22.96
2018-06-27T09:33:46.843Z,23.18
2018-06-27T09:34:48.255Z,23.03
2018-06-27T09:35:49.647Z,23.15
2018-06-27T09:36:51.044Z,23.25
2018-06-27T09:37:52.438Z,23.11
2018-06-27T09:38:54.432Z,23.35
2018-06-27T09:39:55.832Z,23.39
2018-06-27T09:40:57.230Z,23.35
2018-06-27T09:41:58.644Z,23.35
2018-06-27T09:43:00.051Z,23.35
2018-06-27T09:44:01.462Z,23.31
2018-06-27T09:45:02.849Z,23.31
2018-06-27T09:46:04.248Z,23.25
2018-06-27T09:47:05.639Z,23.29
2018-06-27T09:48:07.122Z,23.18
2018-06-27T09:49:08.413Z,23.29
2018-06-27T09:50:09.815Z,23.22
2018-06-27T09:51:11.207Z,23.23
2018-06-27T09:52:12.609Z,23.19
2018-06-27T09:53:14.001Z,23.19
2018-06-27T09:54:15.411Z,23.09
2018-06-27T09:55:16.797Z,23.19
2018-06-27T09:56:18.197Z,23.34
2018-06-27T09:57:19.602Z,23.47
2018-06-27T09:58:20.989Z,23.49
2018-06-27T09:59:22.393Z,23.59
2018-06-27T10:00:23.801Z,23.50
2018-06-27T10:01:25.193Z,23.45
2018-06-27T10:02:26.595Z,23.32
2018-06-27T10:03:28.006Z,23.37
2018-06-27T10:04:29.397Z,23.56
2018-06-27T10:05:30.786Z,23.63
2018-06-27T10:06:32.184Z,23.77
2018-06-27T10:07:33.622Z,23.89
2018-06-27T10:08:34.970Z,24.08
2018-06-27T10:09:36.368Z,24.09
2018-06-27T10:10:37.764Z,24.11
2018-06-27T10:11:39.170Z,24.23
2018-06-27T10:12:40.568Z,24.34
2018-06-27T10:13:41.962Z,24.44
2018-06-27T10:14:43.365Z,24.42
2018-06-27T10:15:44.768Z,24.51
2018-06-27T10:16:46.176Z,24.51
2018-06-27T10:17:47.579Z,24.61
2018-06-27T10:18:48.975Z,24.74
2018-06-27T10:19:50.376Z,24.90
2018-06-27T10:20:51.774Z,24.99
2018-06-27T10:21:53.175Z,24.87
2018-06-27T10:22:54.657Z,24.90
2018-06-27T10:23:56.045Z,24.77
2018-06-27T10:24:57.443Z,24.75
2018-06-27T10:25:58.852Z,24.79
2018-06-27T10:27:00.245Z,24.64
2018-06-27T10:28:01.643Z,24.74
2018-06-27T10:29:03.044Z,24.83
2018-06-27T10:30:04.461Z,24.74
2018-06-27T10:31:05.856Z,24.77
2018-06-27T10:32:07.253Z,24.83
2018-06-27T10:33:08.652Z,24.86
2018-06-27T10:34:10.051Z,24.87
2018-06-27T10:35:11.462Z,24.93
2018-06-27T10:36:12.859Z,24.92
2018-06-27T10:37:14.268Z,24.90
2018-06-27T10:38:15.657Z,24.93
2018-06-27T10:39:17.054Z,24.97
2018-06-27T10:40:18.447Z,24.86
2018-06-27T10:41:19.836Z,24.86
2018-06-27T10:42:21.241Z,24.55
2018-06-27T10:43:22.635Z,24.46
2018-06-27T10:44:24.029Z,24.27
2018-06-27T10:45:25.429Z,24.26
2018-06-27T10:46:26.821Z,24.29
2018-06-27T10:47:28.229Z,24.26
2018-06-27T10:48:29.615Z,24.36
2018-06-27T10:49:31.057Z,24.44
2018-06-27T10:50:32.453Z,24.41
2018-06-27T10:51:33.864Z,24.44
2018-06-27T10:52:35.266Z,24.33
2018-06-27T10:53:36.715Z,24.34
2018-06-27T10:54:38.108Z,24.39
2018-06-27T10:55:39.532Z,24.51
2018-06-27T10:56:40.942Z,24.51
2018-06-27T10:57:42.350Z,24.61
2018-06-27T10:58:43.749Z,24.63
2018-06-27T10:59:45.149Z,24.49
2018-06-27T11:00:46.548Z,24.46
2018-06-27T11:01:47.951Z,24.56
2018-06-27T11:02:49.344Z,24.71
2018-06-27T11:03:50.746Z,24.86
2018-06-27T11:04:52.142Z,24.87
2018-06-27T11:05:53.544Z,24.97
2018-06-27T11:06:54.946Z,24.99
2018-06-27T11:07:56.341Z,24.94
2018-06-27T11:08:57.739Z,24.90
2018-06-27T11:09:59.137Z,24.84
2018-06-27T11:11:00.524Z,24.63
2018-06-27T11:12:01.924Z,24.67
2018-06-27T11:13:03.321Z,24.63
2018-06-27T11:14:04.746Z,24.70
2018-06-27T11:15:07.035Z,24.74
2018-06-27T11:16:07.474Z,24.80
2018-06-27T11:17:08.871Z,24.75
2018-06-27T11:18:10.281Z,24.77
2018-06-27T11:19:11.677Z,24.82
2018-06-27T11:20:13.075Z,24.84
2018-06-27T11:21:14.470Z,24.98
2018-06-27T11:22:15.872Z,24.90
2018-06-27T11:23:17.260Z,25.07
2018-06-27T11:24:18.659Z,25.04
2018-06-27T11:25:20.060Z,25.17
2018-06-27T11:26:21.461Z,25.14
2018-06-27T11:27:22.854Z,25.16
2018-06-27T11:28:24.248Z,25.30
2018-06-27T11:29:25.644Z,25.49
2018-06-27T11:30:27.069Z,25.44
2018-06-27T11:31:28.464Z,25.42
2018-06-27T11:32:29.862Z,25.38
2018-06-27T11:33:31.255Z,25.23
2018-06-27T11:34:32.668Z,25.19
2018-06-27T11:35:34.935Z,24.89
2018-06-27T11:36:36.350Z,24.48
2018-06-27T11:37:37.748Z,24.48
2018-06-27T11:38:39.263Z,24.29
2018-06-27T11:39:40.505Z,24.21
2018-06-27T11:40:41.897Z,24.29
2018-06-27T11:41:43.305Z,24.45
2018-06-27T11:42:44.710Z,24.74
2018-06-27T11:43:46.107Z,25.04
2018-06-27T11:44:47.505Z,25.24
2018-06-27T11:45:48.909Z,25.46
2018-06-27T11:46:50.315Z,25.64
2018-06-27T11:47:51.704Z,25.89
2018-06-27T11:48:53.105Z,25.72
2018-06-27T11:49:54.504Z,25.46
2018-06-27T11:50:55.900Z,25.41
2018-06-27T11:51:57.903Z,25.98
2018-06-27T11:52:59.309Z,26.78
2018-06-27T11:54:00.716Z,27.81
2018-06-27T11:55:02.122Z,28.58
2018-06-27T11:56:03.522Z,28.80
2018-06-27T11:57:04.946Z,29.12
2018-06-27T11:58:06.342Z,29.54
2018-06-27T11:59:07.751Z,29.95
2018-06-27T12:00:09.143Z,29.23
2018-06-27T12:01:10.546Z,28.77
2018-06-27T12:02:11.946Z,28.46
2018-06-27T12:03:13.355Z,28.09
2018-06-27T12:04:14.775Z,28.21
2018-06-27T12:05:16.161Z,28.54
2018-06-27T12:06:17.563Z,29.32
2018-06-27T12:07:18.989Z,30.19
2018-06-27T12:08:20.402Z,30.67
2018-06-27T12:09:21.825Z,30.90
2018-06-27T12:10:23.351Z,31.15
2018-06-27T12:11:24.741Z,31.22
2018-06-27T12:12:26.142Z,30.98
2018-06-27T12:13:27.549Z,31.16
2018-06-27T12:14:28.937Z,31.53
2018-06-27T12:15:30.361Z,31.23
2018-06-27T12:16:31.763Z,30.88
2018-06-27T12:17:33.162Z,30.08
2018-06-27T12:18:34.629Z,29.44
2018-06-27T12:19:36.082Z,28.64
2018-06-27T12:20:37.470Z,28.25
2018-06-27T12:21:39.018Z,27.88
2018-06-27T12:22:40.432Z,27.74
2018-06-27T12:23:41.836Z,27.96
2018-06-27T12:24:43.232Z,27.78
2018-06-27T12:25:44.630Z,27.21
2018-06-27T12:26:46.035Z,27.27
2018-06-27T12:27:47.444Z,27.25
2018-06-27T12:28:48.842Z,27.20
2018-06-27T12:29:50.252Z,27.46
2018-06-27T12:30:51.652Z,27.48
2018-06-27T12:31:53.055Z,27.46
2018-06-27T12:32:54.467Z,27.46
2018-06-27T12:33:55.873Z,27.24
2018-06-27T12:34:57.267Z,27.15
2018-06-27T12:35:58.679Z,27.13
2018-06-27T12:37:00.082Z,27.05
2018-06-27T12:38:01.482Z,26.96
2018-06-27T12:39:02.875Z,26.94
2018-06-27T12:40:04.285Z,26.88
2018-06-27T12:41:05.685Z,26.75
2018-06-27T12:42:07.095Z,26.84
2018-06-27T12:43:08.495Z,26.75
2018-06-27T12:44:09.908Z,26.94
2018-06-27T12:45:11.315Z,27.15
2018-06-27T12:46:12.707Z,27.24
2018-06-27T12:47:14.061Z,27.16
2018-06-27T12:48:15.417Z,26.79
2018-06-27T12:49:16.773Z,26.75
2018-06-27T12:50:18.173Z,26.53
2018-06-27T12:51:19.504Z,26.50
2018-06-27T12:52:21.000Z,26.29
2018-06-27T12:53:22.362Z,26.03
2018-06-27T12:54:23.818Z,25.66
2018-06-27T12:55:25.210Z,25.46
2018-06-27T12:56:26.607Z,25.46
2018-06-27T12:57:28.009Z,25.41
2018-06-27T12:58:29.406Z,25.22
2018-06-27T12:59:30.811Z,25.17
2018-06-27T13:00:32.858Z,25.31
2018-06-27T13:01:34.225Z,25.38
2018-06-27T13:02:35.628Z,25.44
2018-06-27T13:03:37.021Z,25.46
2018-06-27T13:04:38.370Z,25.64
2018-06-27T13:05:39.771Z,25.48
2018-06-27T13:06:41.178Z,25.45
2018-06-27T13:07:42.776Z,25.38
2018-06-27T13:08:44.253Z,25.27
2018-06-27T13:09:45.658Z,25.12
2018-06-27T13:10:47.147Z,25.04